Time;durP1;ratioP1;P1;durP2;ratioP2;P2;SDS_P1;SDS_P2;PMS_P1;PMS_P2;Temp;Humidity;BMP_temperature;BMP_pressure;BME280_temperature;BME280_humidity;BME280_pressure;Samples;Min_cycle;Max_cycle;Signal;HPM_P1;HPM_P2
2023/03/07 00:06:06;;;;;;;29.75;13.80;;;2.20;99.90;;;;;;12360459;28;20458;-81
2023/03/07 00:12:09;;;;;;;30.42;14.13;;;2.20;99.90;;;;;;12342464;28;20078;-81
2023/03/07 00:18:11;;;;;;;30.90;13.70;;;2.20;99.90;;;;;;12335444;28;20076;-81
2023/03/07 00:24:13;;;;;;;29.30;13.63;;;2.20;99.90;;;;;;12375515;28;20502;-80
2023/03/07 00:30:15;;;;;;;30.13;14.07;;;2.20;99.90;;;;;;12361361;28;20061;-80
2023/03/07 00:36:19;;;;;;;25.92;12.43;;;2.30;99.90;;;;;;12367418;28;20414;-79
2023/03/07 00:42:22;;;;;;;27.60;14.23;;;2.40;99.90;;;;;;12355964;28;20054;-79
2023/03/07 00:48:24;;;;;;;24.50;12.65;;;2.50;99.90;;;;;;12342920;28;20051;-81
2023/03/07 00:54:26;;;;;;;24.33;12.00;;;2.50;99.90;;;;;;12358917;28;20049;-80
2023/03/07 01:00:28;;;;;;;20.63;11.20;;;2.60;99.90;;;;;;12379100;28;20338;-80
2023/03/07 01:06:32;;;;;;;21.05;11.27;;;2.70;99.90;;;;;;12374622;28;20050;-80
2023/03/07 01:12:38;;;;;;;23.80;12.38;;;2.80;99.90;;;;;;12343378;28;20106;-80
2023/03/07 01:18:40;;;;;;;20.63;11.00;;;2.80;99.90;;;;;;12380141;28;20208;-79
2023/03/07 01:24:42;;;;;;;21.58;12.45;;;2.80;99.90;;;;;;12375934;28;20050;-80
2023/03/07 01:30:44;;;;;;;22.42;11.98;;;2.70;99.90;;;;;;12379492;28;20050;-80
2023/03/07 01:36:47;;;;;;;19.73;11.70;;;2.80;99.90;;;;;;12360706;28;20075;-79
2023/03/07 01:42:52;;;;;;;20.13;11.02;;;2.80;99.90;;;;;;12377230;28;20127;-79
2023/03/07 01:49:06;;;;;;;20.15;11.27;;;2.80;99.90;;;;;;12376285;28;20533;-79
2023/03/07 01:55:12;;;;;;;20.70;11.17;;;2.80;99.90;;;;;;12351715;28;20054;-79
2023/03/07 02:01:16;;;;;;;18.55;10.45;;;2.80;99.90;;;;;;12369301;28;20047;-80
2023/03/07 02:07:22;;;;;;;19.50;11.35;;;2.80;99.90;;;;;;12399832;28;20055;-79
2023/03/07 02:13:24;;;;;;;18.52;11.35;;;2.90;99.90;;;;;;12385892;28;20429;-79
2023/03/07 02:19:59;;;;;;;20.00;11.43;;;2.90;99.90;;;;;;12358226;28;20184;-79
2023/03/07 02:26:13;;;;;;;21.83;11.88;;;2.90;99.90;;;;;;12371378;28;20447;-79
2023/03/07 02:32:15;;;;;;;21.73;12.50;;;2.90;99.90;;;;;;12382454;28;20117;-80
2023/03/07 02:38:17;;;;;;;22.23;12.38;;;2.90;99.90;;;;;;12382159;28;20065;-80
2023/03/07 02:44:19;;;;;;;20.70;12.40;;;2.80;99.90;;;;;;12396371;28;20046;-79
2023/03/07 02:50:21;;;;;;;20.67;12.52;;;2.90;99.90;;;;;;12377668;28;20043;-79
2023/03/07 02:56:23;;;;;;;22.30;13.10;;;2.90;99.90;;;;;;12377077;28;20414;-79
2023/03/07 03:02:25;;;;;;;21.38;12.55;;;2.90;99.90;;;;;;12359764;28;20058;-78
2023/03/07 03:08:27;;;;;;;19.88;11.88;;;3.00;99.90;;;;;;12358922;28;20498;-80
2023/03/07 03:14:31;;;;;;;20.10;11.73;;;3.00;99.90;;;;;;12380114;28;20074;-79
2023/03/07 03:20:32;;;;;;;18.48;12.25;;;3.00;99.90;;;;;;12380059;28;20478;-79
2023/03/07 03:26:36;;;;;;;24.05;13.63;;;3.00;99.90;;;;;;12387224;28;20046;-79
2023/03/07 03:32:39;;;;;;;21.83;13.05;;;3.10;99.90;;;;;;12371586;28;20054;-80
2023/03/07 03:38:41;;;;;;;22.90;13.93;;;3.10;99.90;;;;;;12384901;28;20055;-80
2023/03/07 03:44:43;;;;;;;22.80;13.77;;;3.10;99.90;;;;;;12377479;28;20049;-79
2023/03/07 03:50:45;;;;;;;20.48;13.20;;;3.10;99.90;;;;;;12358534;28;20518;-79
2023/03/07 03:56:47;;;;;;;20.52;13.13;;;3.20;99.90;;;;;;12386648;28;20046;-80
2023/03/07 04:02:49;;;;;;;14.05;9.25;;;3.30;99.90;;;;;;12382873;28;20104;-80
2023/03/07 04:08:52;;;;;;;10.90;7.25;;;3.20;99.90;;;;;;12356385;28;20042;-79
2023/03/07 04:14:54;;;;;;;12.15;8.05;;;2.90;99.90;;;;;;12362738;28;20066;-79
2023/03/07 04:20:56;;;;;;;12.07;8.00;;;2.90;99.90;;;;;;12368064;28;20076;-79
2023/03/07 04:26:58;;;;;;;12.45;8.05;;;3.00;99.90;;;;;;12367043;28;20128;-79
2023/03/07 04:33:03;;;;;;;16.80;9.38;;;3.10;99.90;;;;;;12355045;28;20042;-80
2023/03/07 04:39:05;;;;;;;15.90;10.55;;;3.30;99.90;;;;;;12377922;28;20128;-80
2023/03/07 04:45:08;;;;;;;16.05;10.35;;;3.30;99.90;;;;;;12374600;28;20042;-79
2023/03/07 04:51:10;;;;;;;9.55;6.68;;;3.40;99.90;;;;;;12370690;28;20046;-79
2023/03/07 04:57:12;;;;;;;5.85;3.83;;;3.20;99.90;;;;;;12387510;28;20059;-81
2023/03/07 05:03:14;;;;;;;4.28;2.88;;;2.50;99.90;;;;;;12361790;28;20054;-80
2023/03/07 05:09:16;;;;;;;6.32;3.08;;;2.30;99.90;;;;;;12363354;28;20057;-79
2023/03/07 05:15:18;;;;;;;6.00;3.25;;;2.40;99.90;;;;;;12349443;28;20047;-78
2023/03/07 05:21:20;;;;;;;4.82;3.13;;;2.50;99.90;;;;;;12345254;28;20054;-79
2023/03/07 05:27:22;;;;;;;4.80;3.05;;;2.70;99.90;;;;;;12370022;28;20078;-79
2023/03/07 05:33:24;;;;;;;7.80;3.83;;;2.60;99.90;;;;;;12375227;28;20538;-79
2023/03/07 05:39:26;;;;;;;7.97;5.00;;;2.70;99.90;;;;;;12355259;28;20046;-78
2023/03/07 05:45:28;;;;;;;12.70;5.28;;;2.80;99.90;;;;;;12388015;28;20042;-78
2023/03/07 05:51:30;;;;;;;7.30;4.35;;;2.70;99.90;;;;;;12392426;28;20054;-78
2023/03/07 05:57:32;;;;;;;9.88;4.63;;;2.80;99.90;;;;;;12377033;28;20105;-79
2023/03/07 06:03:35;;;;;;;8.88;4.68;;;2.70;99.90;;;;;;12386684;28;20044;-79
2023/03/07 06:09:37;;;;;;;8.95;4.57;;;2.70;99.90;;;;;;12438534;28;20050;-78
2023/03/07 06:15:39;;;;;;;7.28;3.88;;;2.70;99.90;;;;;;12405747;28;20038;-77
2023/03/07 06:21:42;;;;;;;8.10;3.70;;;2.60;99.90;;;;;;12376486;28;20051;-79
2023/03/07 06:27:44;;;;;;;8.95;3.42;;;2.60;99.90;;;;;;12376165;28;20070;-78
2023/03/07 06:33:46;;;;;;;9.43;3.55;;;2.50;99.90;;;;;;12370356;28;20617;-79
2023/03/07 06:39:48;;;;;;;7.88;2.72;;;2.50;99.90;;;;;;12374540;28;20558;-78
2023/03/07 06:45:50;;;;;;;9.23;3.15;;;2.50;99.90;;;;;;12360924;28;20411;-78
2023/03/07 06:51:53;;;;;;;5.97;2.80;;;2.50;99.90;;;;;;12360549;28;20507;-78
2023/03/07 06:57:54;;;;;;;9.07;2.90;;;2.50;99.90;;;;;;12374574;28;20042;-78
2023/03/07 07:03:57;;;;;;;8.40;2.97;;;2.60;99.90;;;;;;12371392;28;20054;-79
2023/03/07 07:10:00;;;;;;;7.22;3.00;;;2.60;99.90;;;;;;12376605;28;20125;-79
2023/03/07 07:16:06;;;;;;;8.45;2.67;;;2.70;99.90;;;;;;12349903;28;20157;-79
2023/03/07 07:22:10;;;;;;;5.70;3.33;;;2.70;99.90;;;;;;12371897;28;20134;-80
2023/03/07 07:28:12;;;;;;;;;;;2.50;99.90;;;;;;12366841;28;20490;-80
2023/03/07 07:34:14;;;;;;;5.53;3.20;;;2.30;99.90;;;;;;12360774;28;19945;-80
2023/03/07 07:40:16;;;;;;;9.32;3.28;;;2.20;99.90;;;;;;12379064;28;20132;-79
2023/03/07 07:46:18;;;;;;;8.55;3.10;;;2.10;99.90;;;;;;12368390;28;20483;-80
2023/03/07 07:52:20;;;;;;;4.53;2.70;;;2.00;99.90;;;;;;12365850;28;20190;-81
2023/03/07 07:58:22;;;;;;;6.13;2.30;;;1.80;99.90;;;;;;12359148;28;20058;-81
2023/03/07 08:04:24;;;;;;;6.25;2.58;;;1.70;99.90;;;;;;12361806;28;20047;-81
2023/03/07 08:10:26;;;;;;;4.78;1.90;;;1.60;99.90;;;;;;12368271;28;20616;-81
2023/03/07 08:16:28;;;;;;;3.47;1.60;;;1.40;99.90;;;;;;12359331;28;20057;-81
2023/03/07 08:22:30;;;;;;;5.20;1.17;;;1.20;99.90;;;;;;12374429;28;20553;-82
2023/03/07 08:28:32;;;;;;;5.53;1.40;;;1.20;99.90;;;;;;12351650;28;20050;-82
2023/03/07 08:34:34;;;;;;;8.32;1.35;;;1.30;99.90;;;;;;12383068;28;20106;-81
2023/03/07 08:40:36;;;;;;;4.25;1.20;;;1.20;99.90;;;;;;12383487;28;20232;-82
2023/03/07 08:46:38;;;;;;;5.20;1.20;;;1.30;99.90;;;;;;12384967;28;20557;-82
2023/03/07 08:52:42;;;;;;;4.07;1.20;;;1.40;99.90;;;;;;12371548;28;20043;-82
2023/03/07 08:58:44;;;;;;;5.07;1.10;;;1.40;99.90;;;;;;12363748;28;20058;-82
2023/03/07 09:04:46;;;;;;;3.08;1.20;;;1.50;99.90;;;;;;12370934;28;20050;-81
2023/03/07 09:10:48;;;;;;;3.00;1.20;;;1.50;99.90;;;;;;12355380;28;20054;-81
2023/03/07 09:16:50;;;;;;;3.30;1.50;;;1.50;99.90;;;;;;12340535;28;20101;-81
2023/03/07 09:22:53;;;;;;;5.15;1.45;;;1.50;99.90;;;;;;12353837;28;20059;-80
2023/03/07 09:28:55;;;;;;;4.30;1.70;;;1.50;99.90;;;;;;12365216;28;20443;-80
2023/03/07 09:34:56;;;;;;;5.80;1.80;;;1.50;99.90;;;;;;12375461;28;20047;-80
2023/03/07 09:41:54;;;;;;;3.60;1.60;;;1.50;99.90;;;;;;12348402;28;20051;-81
2023/03/07 09:48:25;;;;;;;6.40;2.33;;;1.50;99.90;;;;;;12341127;28;20077;-81
2023/03/07 09:54:52;;;;;;;4.63;2.60;;;1.40;99.90;;;;;;12370588;28;20101;-80
2023/03/07 10:01:00;;;;;;;4.72;2.55;;;1.50;99.90;;;;;;12357134;28;20097;-81
2023/03/07 10:07:03;;;;;;;3.97;2.60;;;1.40;99.90;;;;;;12381354;28;20051;-81
2023/03/07 10:13:24;;;;;;;3.70;1.90;;;1.50;99.90;;;;;;12384160;28;20100;-81
2023/03/07 10:19:48;;;;;;;4.88;2.42;;;1.40;99.90;;;;;;12322896;28;20046;-82
2023/03/07 10:26:14;;;;;;;4.97;2.17;;;1.30;99.90;;;;;;12376258;28;20054;-82
2023/03/07 10:32:31;;;;;;;4.70;1.90;;;1.40;99.90;;;;;;12380495;28;20189;-82
2023/03/07 10:38:41;;;;;;;2.78;1.48;;;1.40;99.90;;;;;;12365847;28;20053;-82
2023/03/07 10:44:44;;;;;;;3.78;1.73;;;1.50;99.90;;;;;;12367217;28;20050;-82
2023/03/07 10:51:34;;;;;;;3.85;1.80;;;1.50;99.90;;;;;;12362062;28;20306;-83
2023/03/07 10:57:36;;;;;;;3.85;1.67;;;1.50;99.90;;;;;;12321208;28;20057;-82
2023/03/07 11:03:45;;;;;;;4.47;1.63;;;1.50;99.90;;;;;;12353118;28;20051;-81
2023/03/07 11:09:57;;;;;;;4.05;1.80;;;1.50;99.90;;;;;;12386111;28;20100;-82
2023/03/07 11:16:28;;;;;;;3.22;1.80;;;1.50;99.90;;;;;;12368877;28;20129;-82
2023/03/07 11:22:32;;;;;;;5.30;2.85;;;1.50;99.90;;;;;;12370488;28;20053;-82
2023/03/07 11:28:34;;;;;;;5.63;2.70;;;1.70;99.90;;;;;;12368063;28;20057;-82
2023/03/07 11:34:56;;;;;;;4.38;2.20;;;1.80;99.90;;;;;;12371106;28;20046;-82
2023/03/07 11:41:04;;;;;;;4.15;2.20;;;1.80;99.90;;;;;;12355593;28;20479;-81
2023/03/07 11:47:27;;;;;;;4.15;2.42;;;1.80;99.90;;;;;;12348298;28;20055;-81
2023/03/07 11:53:46;;;;;;;4.45;2.35;;;1.80;99.90;;;;;;12372162;28;20086;-80
2023/03/07 12:00:11;;;;;;;4.03;1.90;;;1.80;99.90;;;;;;12376592;28;20089;-80
2023/03/07 12:06:47;;;;;;;4.57;2.30;;;2.00;99.90;;;;;;12352033;28;21148;-80
2023/03/07 12:12:57;;;;;;;4.57;2.03;;;2.30;99.90;;;;;;12366732;28;20050;-80
2023/03/07 12:19:26;;;;;;;3.80;1.70;;;2.20;99.90;;;;;;12387366;28;20070;-80
2023/03/07 12:25:41;;;;;;;2.63;1.60;;;2.30;99.90;;;;;;12364642;28;20418;-80
2023/03/07 12:31:46;;;;;;;2.85;1.73;;;2.30;99.90;;;;;;12370338;28;20106;-79
2023/03/07 12:37:51;;;;;;;3.95;1.75;;;2.50;99.90;;;;;;12352996;28;20051;-80
2023/03/07 12:43:58;;;;;;;3.30;1.50;;;2.60;99.90;;;;;;12371364;28;20046;-79
2023/03/07 12:50:23;;;;;;;4.35;1.60;;;2.60;99.90;;;;;;12367457;28;20055;-79
2023/03/07 12:56:37;;;;;;;2.78;1.63;;;2.60;99.90;;;;;;12360081;28;20133;-79
2023/03/07 13:02:46;;;;;;;5.38;1.90;;;2.50;99.90;;;;;;12379956;28;20192;-78
2023/03/07 13:08:51;;;;;;;8.27;2.35;;;2.60;99.90;;;;;;12370863;28;20073;-79
2023/03/07 13:14:58;;;;;;;4.40;2.22;;;2.50;99.90;;;;;;12364567;28;20042;-78
2023/03/07 13:21:31;;;;;;;7.18;2.78;;;2.40;99.90;;;;;;12381505;28;20046;-79
2023/03/07 13:27:39;;;;;;;5.30;2.30;;;2.40;99.90;;;;;;12349461;28;20054;-78
2023/03/07 13:33:42;;;;;;;6.18;2.70;;;2.50;99.90;;;;;;12393474;28;20049;-79
2023/03/07 13:39:59;;;;;;;3.85;1.92;;;2.50;99.90;;;;;;12385791;28;20047;-78
2023/03/07 13:46:04;;;;;;;4.88;2.33;;;2.70;99.90;;;;;;12386107;28;20066;-78
2023/03/07 13:52:34;;;;;;;5.78;2.47;;;2.70;99.90;;;;;;12367568;28;20050;-79
2023/03/07 13:58:57;;;;;;;4.40;2.28;;;2.80;99.90;;;;;;12331865;28;20141;-79
2023/03/07 14:05:02;;;;;;;3.42;2.10;;;2.90;99.90;;;;;;12350732;28;20050;-79
2023/03/07 14:11:13;;;;;;;3.85;1.83;;;2.90;99.90;;;;;;12385556;28;20486;-78
2023/03/07 14:17:38;;;;;;;4.07;1.75;;;2.90;99.90;;;;;;12387732;28;20046;-78
2023/03/07 14:24:11;;;;;;;4.57;1.98;;;3.00;99.90;;;;;;12346289;28;20062;-79
2023/03/07 14:30:15;;;;;;;4.40;1.90;;;2.80;99.90;;;;;;12368871;28;20062;-78
2023/03/07 14:36:22;;;;;;;4.25;2.20;;;2.70;99.90;;;;;;12343020;28;20046;-79
2023/03/07 14:42:33;;;;;;;5.38;1.88;;;2.60;99.90;;;;;;12369235;28;20165;-79
2023/03/07 14:48:59;;;;;;;1.73;0.57;;;2.60;99.90;;;;;;12355573;28;20100;-78
2023/03/07 14:55:04;;;;;;;2.92;0.60;;;2.00;99.90;;;;;;12353178;28;20096;-79
2023/03/07 15:01:15;;;;;;;1.33;0.60;;;1.50;99.90;;;;;;12353649;28;20135;-80
2023/03/07 15:07:20;;;;;;;1.42;0.77;;;1.30;99.90;;;;;;12369531;28;20149;-80
2023/03/07 15:13:31;;;;;;;2.65;1.00;;;1.50;99.90;;;;;;12349654;28;20544;-80
2023/03/07 15:20:15;;;;;;;0.95;0.50;;;1.80;99.90;;;;;;12348294;28;20057;-80
2023/03/07 15:26:20;;;;;;;1.08;0.60;;;1.60;99.90;;;;;;12353093;28;20197;-80
2023/03/07 15:32:30;;;;;;;1.65;0.90;;;1.70;99.90;;;;;;12354626;28;20075;-80
2023/03/07 15:38:33;;;;;;;6.93;1.13;;;1.60;99.90;;;;;;12378972;28;20078;-80
2023/03/07 15:44:36;;;;;;;5.35;1.55;;;1.60;99.90;;;;;;12355011;28;20185;-80
2023/03/07 15:50:38;;;;;;;4.13;1.33;;;1.50;99.90;;;;;;12325245;28;20050;-80
2023/03/07 15:56:41;;;;;;;2.78;1.33;;;1.40;99.90;;;;;;12344752;28;20458;-80
2023/03/07 16:02:48;;;;;;;4.90;1.20;;;1.30;99.90;;;;;;12374741;28;20050;-80
2023/03/07 16:08:50;;;;;;;8.07;1.25;;;1.30;99.90;;;;;;12367689;28;20391;-80
2023/03/07 16:14:54;;;;;;;9.95;1.30;;;1.30;99.90;;;;;;12376151;28;20092;-81
2023/03/07 16:20:56;;;;;;;9.93;1.50;;;1.20;99.90;;;;;;12332484;28;20463;-82
2023/03/07 16:26:58;;;;;;;7.45;1.50;;;1.10;99.90;;;;;;12369547;28;20107;-81
2023/03/07 16:33:00;;;;;;;7.22;1.65;;;1.20;99.90;;;;;;12374769;28;20071;-81
2023/03/07 16:39:02;;;;;;;4.72;1.23;;;1.10;99.90;;;;;;12361447;28;20479;-82
2023/03/07 16:45:13;;;;;;;6.43;1.98;;;0.90;99.90;;;;;;12376140;28;20046;-81
2023/03/07 16:51:18;;;;;;;2.90;1.20;;;1.00;99.90;;;;;;12363759;28;20529;-82
2023/03/07 16:57:21;;;;;;;3.17;1.42;;;0.90;99.90;;;;;;12371324;28;20066;-82
2023/03/07 17:03:23;;;;;;;7.30;1.60;;;0.80;99.90;;;;;;12330134;28;20051;-81
2023/03/07 17:09:25;;;;;;;3.97;1.05;;;0.80;99.90;;;;;;12357479;28;20054;-81
2023/03/07 17:15:30;;;;;;;4.10;0.90;;;0.70;99.90;;;;;;12378320;28;20046;-81
2023/03/07 17:21:33;;;;;;;5.70;1.38;;;0.80;99.90;;;;;;12360518;28;20129;-81
2023/03/07 17:27:41;;;;;;;3.97;1.58;;;0.80;99.90;;;;;;12358211;28;20494;-80
2023/03/07 17:33:43;;;;;;;4.93;1.45;;;0.80;99.90;;;;;;12368372;28;20050;-80
2023/03/07 17:39:45;;;;;;;5.28;2.13;;;0.80;99.90;;;;;;12377180;28;20134;-81
2023/03/07 17:45:47;;;;;;;3.72;1.60;;;0.80;99.90;;;;;;12350643;28;20054;-81
2023/03/07 17:51:49;;;;;;;5.70;1.75;;;0.70;99.90;;;;;;12367798;28;20220;-80
2023/03/07 17:57:51;;;;;;;5.50;2.28;;;0.70;99.90;;;;;;12394766;28;20050;-81
2023/03/07 18:03:53;;;;;;;7.53;2.55;;;0.70;99.90;;;;;;12357276;28;20053;-81
2023/03/07 18:09:55;;;;;;;6.45;3.10;;;0.70;99.90;;;;;;12358088;28;20054;-81
2023/03/07 18:16:09;;;;;;;3.90;2.13;;;0.60;99.90;;;;;;12368117;28;20121;-81
2023/03/07 18:22:11;;;;;;;4.28;2.78;;;0.60;99.90;;;;;;12365068;28;20045;-81
2023/03/07 18:28:13;;;;;;;6.70;1.95;;;0.60;99.90;;;;;;12377581;28;20059;-81
2023/03/07 18:34:15;;;;;;;4.78;1.73;;;0.60;99.90;;;;;;12375287;28;20791;-81
2023/03/07 18:40:20;;;;;;;4.13;2.03;;;0.50;99.90;;;;;;12390846;28;20082;-80
2023/03/07 18:46:24;;;;;;;5.15;2.20;;;0.50;99.90;;;;;;12355188;28;20065;-81
2023/03/07 18:52:26;;;;;;;6.10;2.67;;;0.50;99.90;;;;;;12370964;28;20045;-82
2023/03/07 18:58:28;;;;;;;9.20;3.83;;;0.50;99.90;;;;;;12344713;28;20054;-80
2023/03/07 19:04:30;;;;;;;7.15;4.10;;;0.50;99.90;;;;;;12356247;28;20133;-81
2023/03/07 19:10:34;;;;;;;8.02;4.13;;;0.50;99.90;;;;;;12368263;28;20177;-81
2023/03/07 19:16:36;;;;;;;6.23;4.03;;;0.60;99.90;;;;;;12349480;28;20077;-81
2023/03/07 19:22:38;;;;;;;6.72;4.13;;;0.60;99.90;;;;;;12363036;28;20050;-82
2023/03/07 19:28:40;;;;;;;8.43;5.50;;;0.60;99.90;;;;;;12362366;28;20329;-81
2023/03/07 19:34:42;;;;;;;10.52;6.00;;;0.60;99.90;;;;;;12368331;28;20076;-81
2023/03/07 19:40:47;;;;;;;9.38;5.93;;;0.60;99.90;;;;;;12353048;28;20104;-82
2023/03/07 19:46:49;;;;;;;9.02;5.05;;;0.60;99.90;;;;;;12382552;28;20237;-82
2023/03/07 19:52:51;;;;;;;8.55;4.80;;;0.60;99.90;;;;;;12363266;28;20139;-82
2023/03/07 19:58:54;;;;;;;8.60;4.28;;;0.60;99.90;;;;;;12336951;28;20051;-82
2023/03/07 20:04:56;;;;;;;6.45;3.67;;;0.60;99.90;;;;;;12360716;28;20057;-82
2023/03/07 20:11:16;;;;;;;8.02;4.10;;;0.60;99.90;;;;;;12359747;28;20570;-82
2023/03/07 20:17:18;;;;;;;7.18;3.95;;;0.70;99.90;;;;;;12339332;28;20046;-82
2023/03/07 20:23:20;;;;;;;6.68;3.90;;;0.70;99.90;;;;;;12382725;28;20050;-82
2023/03/07 20:29:22;;;;;;;7.63;4.40;;;0.60;99.90;;;;;;12365586;28;20082;-82
2023/03/07 20:35:24;;;;;;;5.82;3.95;;;0.60;99.90;;;;;;12330111;28;20042;-82
2023/03/07 20:41:29;;;;;;;9.48;4.25;;;0.60;99.90;;;;;;12361289;28;20418;-82
2023/03/07 20:47:35;;;;;;;7.78;4.90;;;0.70;99.90;;;;;;12358548;28;20050;-82
2023/03/07 20:53:36;;;;;;;8.10;4.60;;;0.60;99.90;;;;;;12347712;28;20044;-82
2023/03/07 20:59:38;;;;;;;7.30;4.63;;;0.60;99.90;;;;;;12368914;28;20058;-82
2023/03/07 21:05:40;;;;;;;7.28;4.35;;;0.60;99.90;;;;;;12360947;28;20117;-82
2023/03/07 21:11:47;;;;;;;8.15;4.95;;;0.60;99.90;;;;;;12325914;28;20065;-82
2023/03/07 21:17:51;;;;;;;7.45;4.78;;;0.60;99.90;;;;;;12368887;28;20046;-82
2023/03/07 21:23:55;;;;;;;9.35;5.57;;;0.50;99.90;;;;;;12351054;28;20608;-82
2023/03/07 21:29:57;;;;;;;9.00;5.80;;;0.50;99.90;;;;;;12334665;28;20054;-82
2023/03/07 21:35:59;;;;;;;9.18;5.78;;;0.50;99.90;;;;;;12333018;28;20913;-82
2023/03/07 21:42:01;;;;;;;9.27;5.60;;;0.50;99.90;;;;;;12378800;28;20081;-82
2023/03/07 21:48:03;;;;;;;9.00;5.90;;;0.50;99.90;;;;;;12336525;28;20084;-82
2023/03/07 21:54:05;;;;;;;8.95;5.20;;;0.50;99.90;;;;;;12365840;28;20348;-82
2023/03/07 22:00:15;;;;;;;10.07;5.68;;;0.40;99.90;;;;;;12357099;28;20519;-82
2023/03/07 22:06:17;;;;;;;10.23;5.20;;;0.40;99.90;;;;;;12301692;28;20141;-81
2023/03/07 22:12:20;;;;;;;11.40;5.43;;;0.50;99.90;;;;;;12356659;28;20058;-83
2023/03/07 22:18:22;;;;;;;8.98;5.43;;;0.60;99.90;;;;;;12347651;28;20074;-82
2023/03/07 22:24:24;;;;;;;10.00;4.60;;;0.60;99.90;;;;;;12365739;28;20047;-82
2023/03/07 22:30:26;;;;;;;11.32;5.10;;;0.70;99.90;;;;;;12379001;28;20403;-81
2023/03/07 22:36:28;;;;;;;8.32;4.50;;;0.70;99.90;;;;;;12389986;28;20043;-81
2023/03/07 22:42:30;;;;;;;10.15;4.50;;;0.80;99.90;;;;;;12383420;28;20057;-81
2023/03/07 22:48:32;;;;;;;8.35;4.70;;;0.70;99.90;;;;;;12371102;28;20054;-81
2023/03/07 22:54:38;;;;;;;10.10;5.05;;;0.60;99.90;;;;;;12362250;28;20139;-82
2023/03/07 23:00:42;;;;;;;9.07;4.93;;;0.60;99.90;;;;;;12373202;28;20057;-82
2023/03/07 23:06:44;;;;;;;8.57;4.50;;;0.50;99.90;;;;;;12377210;28;20057;-82
2023/03/07 23:12:49;;;;;;;7.75;4.38;;;0.50;99.90;;;;;;12381249;28;20074;-82
2023/03/07 23:18:51;;;;;;;;;;;0.60;99.90;;;;;;12352426;28;20075;-81
2023/03/07 23:24:53;;;;;;;9.68;4.55;;;0.60;99.90;;;;;;12338081;28;19921;-82
2023/03/07 23:30:55;;;;;;;9.65;4.55;;;0.50;99.90;;;;;;12336349;28;20098;-82
2023/03/07 23:36:57;;;;;;;10.93;4.57;;;0.60;99.90;;;;;;12352084;28;20130;-81
2023/03/07 23:42:59;;;;;;;8.35;4.05;;;0.70;99.90;;;;;;12362666;28;20529;-82
2023/03/07 23:49:01;;;;;;;9.18;4.40;;;0.70;99.90;;;;;;12346268;28;20047;-82
2023/03/07 23:55:05;;;;;;;9.82;4.35;;;0.80;99.90;;;;;;12347686;28;20073;-82
